sensor_id;sensor_type;location;lat;lon;timestamp;P1;durP1;ratioP1;P2;durP2;ratioP2
9940;SDS011;5009;50.656;7.188;2024-01-25T05:00:21;34.93;;;9.90;;
9940;SDS011;5009;50.656;7.188;2024-01-25T05:02:48;34.03;;;9.93;;
9940;SDS011;5009;50.656;7.188;2024-01-25T05:05:14;38.83;;;10.23;;
9940;SDS011;5009;50.656;7.188;2024-01-25T05:07:40;34.70;;;9.97;;
9940;SDS011;5009;50.656;7.188;2024-01-25T05:10:05;33.63;;;9.40;;
9940;SDS011;5009;50.656;7.188;2024-01-25T05:12:31;33.27;;;10.20;;
9940;SDS011;5009;50.656;7.188;2024-01-25T05:14:57;32.57;;;9.63;;
9940;SDS011;5009;50.656;7.188;2024-01-25T05:17:23;32.53;;;9.97;;
9940;SDS011;5009;50.656;7.188;2024-01-25T05:19:49;32.03;;;9.87;;
9940;SDS011;5009;50.656;7.188;2024-01-25T05:22:14;29.00;;;9.80;;
9940;SDS011;5009;50.656;7.188;2024-01-25T05:24:41;36.07;;;10.13;;
9940;SDS011;5009;50.656;7.188;2024-01-25T05:27:06;34.13;;;10.03;;
9940;SDS011;5009;50.656;7.188;2024-01-25T05:29:32;33.20;;;9.47;;
9940;SDS011;5009;50.656;7.188;2024-01-25T05:31:57;36.80;;;10.70;;
9940;SDS011;5009;50.656;7.188;2024-01-25T05:34:23;29.43;;;9.60;;
9940;SDS011;5009;50.656;7.188;2024-01-25T05:36:49;29.43;;;10.20;;
9940;SDS011;5009;50.656;7.188;2024-01-25T05:39:15;31.13;;;8.90;;
9940;SDS011;5009;50.656;7.188;2024-01-25T05:41:40;31.37;;;9.57;;
9940;SDS011;5009;50.656;7.188;2024-01-25T05:44:06;30.37;;;9.20;;
9940;SDS011;5009;50.656;7.188;2024-01-25T05:46:31;34.53;;;9.20;;
9940;SDS011;5009;50.656;7.188;2024-01-25T05:48:57;29.57;;;9.13;;
9940;SDS011;5009;50.656;7.188;2024-01-25T05:51:23;39.60;;;10.33;;
9940;SDS011;5009;50.656;7.188;2024-01-25T05:53:48;30.83;;;10.93;;
9940;SDS011;5009;50.656;7.188;2024-01-25T05:56:14;31.47;;;10.13;;
9940;SDS011;5009;50.656;7.188;2024-01-25T05:58:39;30.30;;;9.57;;
9940;SDS011;5009;50.656;7.188;2024-01-25T06:01:06;35.53;;;9.90;;
9940;SDS011;5009;50.656;7.188;2024-01-25T06:03:32;32.23;;;9.90;;
9940;SDS011;5009;50.656;7.188;2024-01-25T06:05:57;30.63;;;9.70;;
9940;SDS011;5009;50.656;7.188;2024-01-25T06:08:23;25.53;;;9.30;;
9940;SDS011;5009;50.656;7.188;2024-01-25T06:10:48;30.77;;;9.10;;
9940;SDS011;5009;50.656;7.188;2024-01-25T06:13:15;33.07;;;9.53;;
9940;SDS011;5009;50.656;7.188;2024-01-25T06:15:40;28.47;;;8.70;;
9940;SDS011;5009;50.656;7.188;2024-01-25T06:18:06;34.43;;;9.50;;
9940;SDS011;5009;50.656;7.188;2024-01-25T06:20:32;32.17;;;9.77;;
9940;SDS011;5009;50.656;7.188;2024-01-25T06:22:57;31.17;;;9.27;;
9940;SDS011;5009;50.656;7.188;2024-01-25T06:25:23;31.20;;;9.33;;
9940;SDS011;5009;50.656;7.188;2024-01-25T06:27:49;31.33;;;9.10;;
9940;SDS011;5009;50.656;7.188;2024-01-25T06:30:15;34.17;;;9.50;;
9940;SDS011;5009;50.656;7.188;2024-01-25T06:32:41;28.40;;;9.60;;
9940;SDS011;5009;50.656;7.188;2024-01-25T06:35:06;33.37;;;9.27;;
9940;SDS011;5009;50.656;7.188;2024-01-25T06:37:32;30.50;;;8.67;;
9940;SDS011;5009;50.656;7.188;2024-01-25T06:39:58;31.20;;;9.67;;
9940;SDS011;5009;50.656;7.188;2024-01-25T06:42:23;27.97;;;9.87;;
9940;SDS011;5009;50.656;7.188;2024-01-25T06:44:49;32.03;;;9.70;;
9940;SDS011;5009;50.656;7.188;2024-01-25T06:47:15;36.33;;;10.30;;
9940;SDS011;5009;50.656;7.188;2024-01-25T06:49:40;31.67;;;10.00;;
9940;SDS011;5009;50.656;7.188;2024-01-25T06:52:06;34.80;;;11.67;;
9940;SDS011;5009;50.656;7.188;2024-01-25T06:54:31;39.70;;;12.73;;
9940;SDS011;5009;50.656;7.188;2024-01-25T06:56:57;29.03;;;10.60;;
9940;SDS011;5009;50.656;7.188;2024-01-25T06:59:22;29.03;;;9.87;;
9940;SDS011;5009;50.656;7.188;2024-01-25T07:01:48;36.73;;;9.90;;
9940;SDS011;5009;50.656;7.188;2024-01-25T07:04:14;26.93;;;9.03;;
9940;SDS011;5009;50.656;7.188;2024-01-25T07:06:40;28.43;;;9.40;;
9940;SDS011;5009;50.656;7.188;2024-01-25T07:09:05;27.37;;;9.27;;
9940;SDS011;5009;50.656;7.188;2024-01-25T07:11:31;31.80;;;9.03;;
9940;SDS011;5009;50.656;7.188;2024-01-25T07:13:57;23.93;;;9.53;;
9940;SDS011;5009;50.656;7.188;2024-01-25T07:16:23;26.03;;;8.03;;
9940;SDS011;5009;50.656;7.188;2024-01-25T07:18:48;30.80;;;9.20;;
9940;SDS011;5009;50.656;7.188;2024-01-25T07:21:14;31.27;;;9.40;;
9940;SDS011;5009;50.656;7.188;2024-01-25T07:23:40;31.47;;;9.23;;
9940;SDS011;5009;50.656;7.188;2024-01-25T07:26:05;40.47;;;10.23;;
9940;SDS011;5009;50.656;7.188;2024-01-25T07:28:31;25.30;;;8.87;;
9940;SDS011;5009;50.656;7.188;2024-01-25T07:30:57;26.07;;;8.63;;
9940;SDS011;5009;50.656;7.188;2024-01-25T07:33:22;28.57;;;8.97;;
9940;SDS011;5009;50.656;7.188;2024-01-25T07:35:48;26.20;;;9.07;;
9940;SDS011;5009;50.656;7.188;2024-01-25T07:38:17;33.93;;;11.97;;
9940;SDS011;5009;50.656;7.188;2024-01-25T07:40:42;32.43;;;15.07;;
9940;SDS011;5009;50.656;7.188;2024-01-25T07:43:08;33.20;;;16.20;;
9940;SDS011;5009;50.656;7.188;2024-01-25T07:45:34;36.10;;;17.13;;
9940;SDS011;5009;50.656;7.188;2024-01-25T07:48:00;38.13;;;16.03;;
9940;SDS011;5009;50.656;7.188;2024-01-25T07:50:25;33.50;;;15.70;;
9940;SDS011;5009;50.656;7.188;2024-01-25T07:52:51;32.07;;;15.03;;
9940;SDS011;5009;50.656;7.188;2024-01-25T07:55:17;28.93;;;13.83;;
9940;SDS011;5009;50.656;7.188;2024-01-25T07:57:42;26.53;;;11.77;;
9940;SDS011;5009;50.656;7.188;2024-01-25T08:00:08;26.27;;;11.00;;
9940;SDS011;5009;50.656;7.188;2024-01-25T08:02:35;31.03;;;11.30;;
9940;SDS011;5009;50.656;7.188;2024-01-25T08:05:01;25.63;;;10.90;;
9940;SDS011;5009;50.656;7.188;2024-01-25T08:07:26;30.90;;;11.43;;
9940;SDS011;5009;50.656;7.188;2024-01-25T08:09:53;27.13;;;10.27;;
9940;SDS011;5009;50.656;7.188;2024-01-25T08:12:22;26.13;;;9.73;;
9940;SDS011;5009;50.656;7.188;2024-01-25T08:14:51;28.97;;;10.20;;
9940;SDS011;5009;50.656;7.188;2024-01-25T08:17:17;28.13;;;10.13;;
9940;SDS011;5009;50.656;7.188;2024-01-25T08:19:42;26.23;;;10.53;;
9940;SDS011;5009;50.656;7.188;2024-01-25T08:22:08;24.23;;;9.53;;
9940;SDS011;5009;50.656;7.188;2024-01-25T08:24:35;23.00;;;9.47;;
9940;SDS011;5009;50.656;7.188;2024-01-25T08:27:01;23.53;;;9.13;;
9940;SDS011;5009;50.656;7.188;2024-01-25T08:29:26;27.23;;;9.73;;
9940;SDS011;5009;50.656;7.188;2024-01-25T08:31:52;28.30;;;9.93;;
9940;SDS011;5009;50.656;7.188;2024-01-25T08:34:17;20.27;;;8.63;;
9940;SDS011;5009;50.656;7.188;2024-01-25T08:36:43;23.27;;;9.43;;
9940;SDS011;5009;50.656;7.188;2024-01-25T08:39:09;28.83;;;10.33;;
9940;SDS011;5009;50.656;7.188;2024-01-25T08:41:34;26.03;;;9.43;;
9940;SDS011;5009;50.656;7.188;2024-01-25T08:44:00;24.57;;;8.43;;
9940;SDS011;5009;50.656;7.188;2024-01-25T08:46:26;25.07;;;8.63;;
9940;SDS011;5009;50.656;7.188;2024-01-25T08:48:51;21.97;;;9.43;;
9940;SDS011;5009;50.656;7.188;2024-01-25T08:51:17;22.67;;;8.60;;
9940;SDS011;5009;50.656;7.188;2024-01-25T08:53:43;25.73;;;9.23;;
9940;SDS011;5009;50.656;7.188;2024-01-25T08:56:08;30.40;;;9.50;;
9940;SDS011;5009;50.656;7.188;2024-01-25T08:58:34;35.37;;;10.80;;
9940;SDS011;5009;50.656;7.188;2024-01-25T09:01:00;30.30;;;10.37;;
9940;SDS011;5009;50.656;7.188;2024-01-25T09:03:25;24.07;;;10.43;;
9940;SDS011;5009;50.656;7.188;2024-01-25T09:05:51;29.40;;;10.80;;
9940;SDS011;5009;50.656;7.188;2024-01-25T09:08:17;25.87;;;11.03;;
9940;SDS011;5009;50.656;7.188;2024-01-25T09:10:42;33.00;;;10.90;;
9940;SDS011;5009;50.656;7.188;2024-01-25T09:13:09;31.20;;;10.70;;
9940;SDS011;5009;50.656;7.188;2024-01-25T09:15:35;26.53;;;9.67;;
9940;SDS011;5009;50.656;7.188;2024-01-25T09:18:01;29.47;;;9.97;;
9940;SDS011;5009;50.656;7.188;2024-01-25T09:20:27;29.43;;;10.80;;
9940;SDS011;5009;50.656;7.188;2024-01-25T09:22:52;28.37;;;9.97;;
9940;SDS011;5009;50.656;7.188;2024-01-25T09:25:19;26.67;;;9.13;;
9940;SDS011;5009;50.656;7.188;2024-01-25T09:27:45;27.33;;;8.67;;
9940;SDS011;5009;50.656;7.188;2024-01-25T09:30:11;26.00;;;9.47;;
9940;SDS011;5009;50.656;7.188;2024-01-25T09:32:37;32.27;;;8.87;;
9940;SDS011;5009;50.656;7.188;2024-01-25T09:35:03;28.53;;;8.80;;
9940;SDS011;5009;50.656;7.188;2024-01-25T09:37:28;27.03;;;8.77;;
9940;SDS011;5009;50.656;7.188;2024-01-25T09:39:54;30.40;;;9.20;;
9940;SDS011;5009;50.656;7.188;2024-01-25T09:42:20;27.47;;;9.47;;
9940;SDS011;5009;50.656;7.188;2024-01-25T09:44:45;28.97;;;9.30;;
9940;SDS011;5009;50.656;7.188;2024-01-25T09:47:11;29.40;;;9.23;;
9940;SDS011;5009;50.656;7.188;2024-01-25T09:49:38;26.37;;;9.53;;
9940;SDS011;5009;50.656;7.188;2024-01-25T09:52:04;32.70;;;9.57;;
9940;SDS011;5009;50.656;7.188;2024-01-25T09:54:33;27.23;;;9.10;;
9940;SDS011;5009;50.656;7.188;2024-01-25T09:57:03;30.50;;;9.70;;
9940;SDS011;5009;50.656;7.188;2024-01-25T09:59:39;27.33;;;9.17;;
9940;SDS011;5009;50.656;7.188;2024-01-25T10:02:05;33.57;;;10.13;;
9940;SDS011;5009;50.656;7.188;2024-01-25T10:04:32;26.20;;;9.80;;
9940;SDS011;5009;50.656;7.188;2024-01-25T10:06:58;25.23;;;9.60;;
9940;SDS011;5009;50.656;7.188;2024-01-25T10:09:23;22.37;;;9.20;;
9940;SDS011;5009;50.656;7.188;2024-01-25T10:11:49;33.03;;;11.10;;
9940;SDS011;5009;50.656;7.188;2024-01-25T10:14:14;28.17;;;8.93;;
9940;SDS011;5009;50.656;7.188;2024-01-25T10:16:40;22.67;;;9.30;;
9940;SDS011;5009;50.656;7.188;2024-01-25T10:19:06;27.30;;;9.20;;
9940;SDS011;5009;50.656;7.188;2024-01-25T10:21:32;19.43;;;7.90;;
9940;SDS011;5009;50.656;7.188;2024-01-25T10:24:00;24.93;;;8.43;;
9940;SDS011;5009;50.656;7.188;2024-01-25T10:26:26;26.40;;;8.30;;
9940;SDS011;5009;50.656;7.188;2024-01-25T10:28:53;18.83;;;7.10;;
9940;SDS011;5009;50.656;7.188;2024-01-25T10:31:23;20.70;;;7.43;;
9940;SDS011;5009;50.656;7.188;2024-01-25T10:33:51;22.20;;;7.67;;
9940;SDS011;5009;50.656;7.188;2024-01-25T10:36:18;18.33;;;7.17;;
9940;SDS011;5009;50.656;7.188;2024-01-25T10:38:50;23.27;;;7.77;;
9940;SDS011;5009;50.656;7.188;2024-01-25T10:41:18;19.70;;;7.33;;
9940;SDS011;5009;50.656;7.188;2024-01-25T10:43:44;22.50;;;7.30;;
9940;SDS011;5009;50.656;7.188;2024-01-25T10:46:10;20.70;;;7.40;;
9940;SDS011;5009;50.656;7.188;2024-01-25T10:48:36;18.87;;;7.33;;
9940;SDS011;5009;50.656;7.188;2024-01-25T10:51:03;23.23;;;7.30;;
9940;SDS011;5009;50.656;7.188;2024-01-25T10:53:33;23.67;;;8.50;;
9940;SDS011;5009;50.656;7.188;2024-01-25T10:55:59;24.27;;;9.90;;
9940;SDS011;5009;50.656;7.188;2024-01-25T10:58:30;20.90;;;8.30;;
9940;SDS011;5009;50.656;7.188;2024-01-25T11:00:56;30.23;;;8.30;;
9940;SDS011;5009;50.656;7.188;2024-01-25T11:03:30;20.93;;;7.83;;
9940;SDS011;5009;50.656;7.188;2024-01-25T11:06:08;22.97;;;7.67;;
9940;SDS011;5009;50.656;7.188;2024-01-25T11:08:34;18.83;;;7.10;;
9940;SDS011;5009;50.656;7.188;2024-01-25T11:11:03;25.30;;;7.87;;
9940;SDS011;5009;50.656;7.188;2024-01-25T11:13:32;22.20;;;7.83;;
9940;SDS011;5009;50.656;7.188;2024-01-25T11:15:58;17.50;;;7.13;;
9940;SDS011;5009;50.656;7.188;2024-01-25T11:18:27;18.47;;;6.53;;
9940;SDS011;5009;50.656;7.188;2024-01-25T11:20:52;22.10;;;7.43;;
9940;SDS011;5009;50.656;7.188;2024-01-25T11:23:18;17.13;;;7.10;;
9940;SDS011;5009;50.656;7.188;2024-01-25T11:25:44;15.93;;;6.27;;
9940;SDS011;5009;50.656;7.188;2024-01-25T11:28:11;15.93;;;7.00;;
9940;SDS011;5009;50.656;7.188;2024-01-25T11:30:40;17.90;;;6.17;;
9940;SDS011;5009;50.656;7.188;2024-01-25T11:33:08;20.60;;;6.97;;
9940;SDS011;5009;50.656;7.188;2024-01-25T11:35:35;18.13;;;6.83;;
9940;SDS011;5009;50.656;7.188;2024-01-25T11:38:00;19.80;;;6.90;;
9940;SDS011;5009;50.656;7.188;2024-01-25T11:40:26;21.10;;;7.23;;
9940;SDS011;5009;50.656;7.188;2024-01-25T11:42:53;14.17;;;6.37;;
9940;SDS011;5009;50.656;7.188;2024-01-25T11:45:19;22.87;;;7.40;;
9940;SDS011;5009;50.656;7.188;2024-01-25T11:47:44;20.77;;;6.57;;
9940;SDS011;5009;50.656;7.188;2024-01-25T11:50:11;17.77;;;6.87;;
9940;SDS011;5009;50.656;7.188;2024-01-25T11:52:37;18.53;;;7.27;;
9940;SDS011;5009;50.656;7.188;2024-01-25T11:55:04;17.90;;;6.57;;
9940;SDS011;5009;50.656;7.188;2024-01-25T11:57:31;16.17;;;6.90;;
9940;SDS011;5009;50.656;7.188;2024-01-25T12:00:00;21.80;;;8.00;;
9940;SDS011;5009;50.656;7.188;2024-01-25T12:02:27;21.10;;;6.80;;
9940;SDS011;5009;50.656;7.188;2024-01-25T12:04:53;15.10;;;6.40;;
9940;SDS011;5009;50.656;7.188;2024-01-25T12:07:21;15.63;;;6.10;;
9940;SDS011;5009;50.656;7.188;2024-01-25T12:12:44;15.07;;;6.20;;
9940;SDS011;5009;50.656;7.188;2024-01-25T12:15:10;14.00;;;6.20;;
9940;SDS011;5009;50.656;7.188;2024-01-25T12:17:35;17.83;;;6.23;;
9940;SDS011;5009;50.656;7.188;2024-01-25T12:20:02;18.77;;;6.63;;
9940;SDS011;5009;50.656;7.188;2024-01-25T12:22:28;22.03;;;7.47;;
9940;SDS011;5009;50.656;7.188;2024-01-25T12:24:55;20.83;;;7.30;;
9940;SDS011;5009;50.656;7.188;2024-01-25T12:27:24;20.80;;;6.10;;
9940;SDS011;5009;50.656;7.188;2024-01-25T12:29:51;16.83;;;5.73;;
9940;SDS011;5009;50.656;7.188;2024-01-25T12:32:20;19.80;;;6.90;;
9940;SDS011;5009;50.656;7.188;2024-01-25T12:34:59;17.37;;;5.73;;
9940;SDS011;5009;50.656;7.188;2024-01-25T12:37:28;18.30;;;6.80;;
9940;SDS011;5009;50.656;7.188;2024-01-25T12:39:54;17.53;;;6.83;;
9940;SDS011;5009;50.656;7.188;2024-01-25T12:42:20;21.87;;;8.20;;
9940;SDS011;5009;50.656;7.188;2024-01-25T12:44:47;20.17;;;7.70;;
9940;SDS011;5009;50.656;7.188;2024-01-25T12:47:12;20.53;;;6.97;;
9940;SDS011;5009;50.656;7.188;2024-01-25T12:49:39;16.90;;;7.77;;
9940;SDS011;5009;50.656;7.188;2024-01-25T12:52:08;19.97;;;8.13;;
9940;SDS011;5009;50.656;7.188;2024-01-25T12:54:38;23.00;;;8.03;;
9940;SDS011;5009;50.656;7.188;2024-01-25T12:57:04;19.23;;;6.60;;
9940;SDS011;5009;50.656;7.188;2024-01-25T12:59:31;23.77;;;7.00;;
9940;SDS011;5009;50.656;7.188;2024-01-25T13:01:57;24.73;;;6.87;;
9940;SDS011;5009;50.656;7.188;2024-01-25T13:04:23;13.97;;;6.43;;
9940;SDS011;5009;50.656;7.188;2024-01-25T13:06:50;18.97;;;6.53;;
9940;SDS011;5009;50.656;7.188;2024-01-25T13:09:17;18.43;;;6.90;;
9940;SDS011;5009;50.656;7.188;2024-01-25T13:11:43;17.33;;;6.73;;
9940;SDS011;5009;50.656;7.188;2024-01-25T13:14:09;19.87;;;6.83;;
9940;SDS011;5009;50.656;7.188;2024-01-25T13:16:34;18.13;;;6.73;;
9940;SDS011;5009;50.656;7.188;2024-01-25T13:19:00;17.97;;;7.10;;
9940;SDS011;5009;50.656;7.188;2024-01-25T13:21:25;19.73;;;6.57;;
9940;SDS011;5009;50.656;7.188;2024-01-25T13:23:51;14.80;;;5.90;;
9940;SDS011;5009;50.656;7.188;2024-01-25T13:26:16;17.90;;;7.10;;
9940;SDS011;5009;50.656;7.188;2024-01-25T13:28:42;19.80;;;8.40;;
9940;SDS011;5009;50.656;7.188;2024-01-25T13:31:07;22.53;;;7.67;;
9940;SDS011;5009;50.656;7.188;2024-01-25T13:33:33;26.33;;;14.00;;
9940;SDS011;5009;50.656;7.188;2024-01-25T13:35:58;20.90;;;11.77;;
9940;SDS011;5009;50.656;7.188;2024-01-25T13:38:24;17.53;;;8.00;;
9940;SDS011;5009;50.656;7.188;2024-01-25T13:40:50;17.90;;;7.87;;
9940;SDS011;5009;50.656;7.188;2024-01-25T13:43:15;22.77;;;9.97;;
9940;SDS011;5009;50.656;7.188;2024-01-25T13:45:41;19.53;;;7.87;;
9940;SDS011;5009;50.656;7.188;2024-01-25T13:48:06;17.07;;;8.90;;
9940;SDS011;5009;50.656;7.188;2024-01-25T13:50:32;18.47;;;7.80;;
9940;SDS011;5009;50.656;7.188;2024-01-25T13:52:58;20.67;;;7.17;;
9940;SDS011;5009;50.656;7.188;2024-01-25T13:55:23;17.50;;;7.87;;
9940;SDS011;5009;50.656;7.188;2024-01-25T13:57:49;14.97;;;6.90;;
9940;SDS011;5009;50.656;7.188;2024-01-25T14:00:15;18.43;;;6.50;;
9940;SDS011;5009;50.656;7.188;2024-01-25T14:02:40;15.10;;;6.43;;
9940;SDS011;5009;50.656;7.188;2024-01-25T14:05:10;20.67;;;8.53;;
9940;SDS011;5009;50.656;7.188;2024-01-25T14:07:36;21.60;;;6.70;;
9940;SDS011;5009;50.656;7.188;2024-01-25T14:10:02;18.40;;;6.30;;
9940;SDS011;5009;50.656;7.188;2024-01-25T14:12:28;19.20;;;6.73;;
9940;SDS011;5009;50.656;7.188;2024-01-25T14:14:54;17.03;;;7.50;;
9940;SDS011;5009;50.656;7.188;2024-01-25T14:17:19;22.13;;;6.43;;
9940;SDS011;5009;50.656;7.188;2024-01-25T14:19:46;28.53;;;14.93;;
9940;SDS011;5009;50.656;7.188;2024-01-25T14:22:12;22.07;;;10.13;;
9940;SDS011;5009;50.656;7.188;2024-01-25T14:24:37;18.10;;;7.80;;
9940;SDS011;5009;50.656;7.188;2024-01-25T14:27:03;14.60;;;6.30;;
9940;SDS011;5009;50.656;7.188;2024-01-25T14:29:29;17.87;;;6.83;;
9940;SDS011;5009;50.656;7.188;2024-01-25T14:31:57;16.07;;;6.13;;
9940;SDS011;5009;50.656;7.188;2024-01-25T14:34:23;19.13;;;6.90;;
9940;SDS011;5009;50.656;7.188;2024-01-25T14:36:48;17.40;;;6.03;;
9940;SDS011;5009;50.656;7.188;2024-01-25T14:39:15;15.33;;;6.10;;
9940;SDS011;5009;50.656;7.188;2024-01-25T14:41:42;17.70;;;5.90;;
9940;SDS011;5009;50.656;7.188;2024-01-25T14:44:08;19.33;;;6.90;;
9940;SDS011;5009;50.656;7.188;2024-01-25T14:46:34;19.97;;;6.63;;
9940;SDS011;5009;50.656;7.188;2024-01-25T14:48:59;19.03;;;6.63;;
9940;SDS011;5009;50.656;7.188;2024-01-25T14:51:25;16.13;;;6.87;;
9940;SDS011;5009;50.656;7.188;2024-01-25T14:53:51;19.87;;;6.50;;
9940;SDS011;5009;50.656;7.188;2024-01-25T14:56:16;15.97;;;6.50;;
9940;SDS011;5009;50.656;7.188;2024-01-25T14:58:42;17.13;;;6.90;;
9940;SDS011;5009;50.656;7.188;2024-01-25T15:01:07;17.30;;;6.47;;
9940;SDS011;5009;50.656;7.188;2024-01-25T15:03:37;18.23;;;7.07;;
9940;SDS011;5009;50.656;7.188;2024-01-25T15:06:02;20.30;;;6.37;;
9940;SDS011;5009;50.656;7.188;2024-01-25T15:08:28;20.33;;;6.07;;
9940;SDS011;5009;50.656;7.188;2024-01-25T15:10:53;17.07;;;6.20;;
9940;SDS011;5009;50.656;7.188;2024-01-25T15:13:19;18.77;;;6.97;;
9940;SDS011;5009;50.656;7.188;2024-01-25T15:15:45;15.20;;;6.80;;
9940;SDS011;5009;50.656;7.188;2024-01-25T15:18:10;19.77;;;8.37;;
9940;SDS011;5009;50.656;7.188;2024-01-25T15:20:36;35.27;;;20.20;;
9940;SDS011;5009;50.656;7.188;2024-01-25T15:23:01;23.10;;;9.97;;
9940;SDS011;5009;50.656;7.188;2024-01-25T15:25:27;16.27;;;7.07;;
9940;SDS011;5009;50.656;7.188;2024-01-25T15:27:53;19.13;;;7.10;;
9940;SDS011;5009;50.656;7.188;2024-01-25T15:30:18;18.73;;;6.50;;
9940;SDS011;5009;50.656;7.188;2024-01-25T15:32:44;15.47;;;6.33;;
9940;SDS011;5009;50.656;7.188;2024-01-25T15:35:11;18.30;;;6.70;;
9940;SDS011;5009;50.656;7.188;2024-01-25T15:37:37;15.67;;;7.00;;
9940;SDS011;5009;50.656;7.188;2024-01-25T15:40:03;13.13;;;7.00;;
9940;SDS011;5009;50.656;7.188;2024-01-25T15:42:35;18.60;;;6.40;;
9940;SDS011;5009;50.656;7.188;2024-01-25T15:45:02;17.67;;;6.70;;
9940;SDS011;5009;50.656;7.188;2024-01-25T15:47:28;18.07;;;7.80;;
9940;SDS011;5009;50.656;7.188;2024-01-25T15:49:54;15.03;;;6.67;;
9940;SDS011;5009;50.656;7.188;2024-01-25T15:52:20;15.80;;;6.60;;
9940;SDS011;5009;50.656;7.188;2024-01-25T15:54:46;17.67;;;6.63;;
9940;SDS011;5009;50.656;7.188;2024-01-25T15:57:11;16.40;;;7.13;;
9940;SDS011;5009;50.656;7.188;2024-01-25T15:59:37;19.47;;;6.20;;
9940;SDS011;5009;50.656;7.188;2024-01-25T16:02:03;15.93;;;6.50;;
9940;SDS011;5009;50.656;7.188;2024-01-25T16:04:28;12.60;;;6.23;;
9940;SDS011;5009;50.656;7.188;2024-01-25T16:06:55;19.47;;;6.67;;
9940;SDS011;5009;50.656;7.188;2024-01-25T16:09:20;22.33;;;6.83;;
9940;SDS011;5009;50.656;7.188;2024-01-25T16:11:46;15.33;;;6.37;;
9940;SDS011;5009;50.656;7.188;2024-01-25T16:14:12;16.23;;;6.83;;
9940;SDS011;5009;50.656;7.188;2024-01-25T16:16:38;19.40;;;6.33;;
9940;SDS011;5009;50.656;7.188;2024-01-25T16:19:03;18.53;;;6.37;;
9940;SDS011;5009;50.656;7.188;2024-01-25T16:21:29;12.90;;;5.57;;
9940;SDS011;5009;50.656;7.188;2024-01-25T16:23:54;12.23;;;5.07;;
9940;SDS011;5009;50.656;7.188;2024-01-25T16:26:20;16.63;;;5.93;;
9940;SDS011;5009;50.656;7.188;2024-01-25T16:28:45;15.73;;;6.60;;
9940;SDS011;5009;50.656;7.188;2024-01-25T16:31:11;17.93;;;6.10;;
9940;SDS011;5009;50.656;7.188;2024-01-25T16:33:37;15.73;;;6.00;;
9940;SDS011;5009;50.656;7.188;2024-01-25T16:36:02;14.40;;;5.60;;
9940;SDS011;5009;50.656;7.188;2024-01-25T16:38:28;20.47;;;10.57;;
9940;SDS011;5009;50.656;7.188;2024-01-25T16:40:53;21.03;;;7.70;;
9940;SDS011;5009;50.656;7.188;2024-01-25T16:43:19;19.27;;;7.37;;
9940;SDS011;5009;50.656;7.188;2024-01-25T16:45:44;16.53;;;6.73;;
9940;SDS011;5009;50.656;7.188;2024-01-25T16:48:10;20.93;;;6.30;;
9940;SDS011;5009;50.656;7.188;2024-01-25T16:50:35;19.23;;;6.80;;
9940;SDS011;5009;50.656;7.188;2024-01-25T16:53:01;18.33;;;6.87;;
9940;SDS011;5009;50.656;7.188;2024-01-25T16:55:27;15.10;;;5.87;;
9940;SDS011;5009;50.656;7.188;2024-01-25T16:57:52;17.03;;;6.80;;
9940;SDS011;5009;50.656;7.188;2024-01-25T17:00:18;19.40;;;6.73;;
9940;SDS011;5009;50.656;7.188;2024-01-25T17:02:44;19.20;;;6.43;;
9940;SDS011;5009;50.656;7.188;2024-01-25T17:05:10;18.33;;;6.10;;
9940;SDS011;5009;50.656;7.188;2024-01-25T17:07:36;17.93;;;6.50;;
9940;SDS011;5009;50.656;7.188;2024-01-25T17:10:02;18.80;;;7.93;;
9940;SDS011;5009;50.656;7.188;2024-01-25T17:12:28;16.13;;;6.73;;
9940;SDS011;5009;50.656;7.188;2024-01-25T17:14:54;21.67;;;7.80;;
9940;SDS011;5009;50.656;7.188;2024-01-25T17:17:20;20.53;;;7.33;;
9940;SDS011;5009;50.656;7.188;2024-01-25T17:19:46;21.17;;;6.70;;
9940;SDS011;5009;50.656;7.188;2024-01-25T17:22:12;25.63;;;10.87;;
9940;SDS011;5009;50.656;7.188;2024-01-25T17:24:38;18.37;;;7.30;;
9940;SDS011;5009;50.656;7.188;2024-01-25T17:27:03;18.80;;;7.80;;
9940;SDS011;5009;50.656;7.188;2024-01-25T17:29:29;21.27;;;9.90;;
9940;SDS011;5009;50.656;7.188;2024-01-25T17:31:55;33.10;;;21.60;;
9940;SDS011;5009;50.656;7.188;2024-01-25T17:34:20;39.83;;;28.33;;
9940;SDS011;5009;50.656;7.188;2024-01-25T17:36:46;91.97;;;75.70;;
9940;SDS011;5009;50.656;7.188;2024-01-25T17:39:11;43.83;;;34.73;;
9940;SDS011;5009;50.656;7.188;2024-01-25T17:41:37;23.23;;;10.33;;
9940;SDS011;5009;50.656;7.188;2024-01-25T17:44:03;22.30;;;12.00;;
9940;SDS011;5009;50.656;7.188;2024-01-25T17:46:28;24.37;;;12.40;;
9940;SDS011;5009;50.656;7.188;2024-01-25T17:48:54;26.27;;;10.37;;
9940;SDS011;5009;50.656;7.188;2024-01-25T17:51:20;22.00;;;15.33;;
9940;SDS011;5009;50.656;7.188;2024-01-25T17:53:45;49.70;;;34.40;;
9940;SDS011;5009;50.656;7.188;2024-01-25T17:56:11;35.20;;;19.47;;
9940;SDS011;5009;50.656;7.188;2024-01-25T17:58:37;24.47;;;9.00;;
9940;SDS011;5009;50.656;7.188;2024-01-25T18:01:02;18.77;;;7.00;;
9940;SDS011;5009;50.656;7.188;2024-01-25T18:03:28;19.97;;;7.70;;
9940;SDS011;5009;50.656;7.188;2024-01-25T18:05:54;17.70;;;7.20;;
9940;SDS011;5009;50.656;7.188;2024-01-25T18:08:20;17.77;;;10.17;;
9940;SDS011;5009;50.656;7.188;2024-01-25T18:10:46;37.10;;;27.17;;
9940;SDS011;5009;50.656;7.188;2024-01-25T18:13:11;19.37;;;7.43;;
9940;SDS011;5009;50.656;7.188;2024-01-25T18:15:37;21.40;;;8.07;;
9940;SDS011;5009;50.656;7.188;2024-01-25T18:18:02;17.13;;;7.83;;
9940;SDS011;5009;50.656;7.188;2024-01-25T18:20:28;19.07;;;7.00;;
9940;SDS011;5009;50.656;7.188;2024-01-25T18:22:54;20.10;;;5.90;;
9940;SDS011;5009;50.656;7.188;2024-01-25T18:25:19;16.63;;;8.70;;
9940;SDS011;5009;50.656;7.188;2024-01-25T18:27:45;16.50;;;7.23;;
9940;SDS011;5009;50.656;7.188;2024-01-25T18:30:11;16.80;;;6.43;;
9940;SDS011;5009;50.656;7.188;2024-01-25T18:32:37;20.30;;;8.23;;
9940;SDS011;5009;50.656;7.188;2024-01-25T18:35:03;15.03;;;6.63;;
9940;SDS011;5009;50.656;7.188;2024-01-25T18:37:29;15.13;;;7.33;;
9940;SDS011;5009;50.656;7.188;2024-01-25T18:39:54;19.23;;;7.27;;
9940;SDS011;5009;50.656;7.188;2024-01-25T18:42:20;15.57;;;5.77;;
9940;SDS011;5009;50.656;7.188;2024-01-25T18:44:46;18.87;;;6.17;;
9940;SDS011;5009;50.656;7.188;2024-01-25T18:47:11;13.93;;;6.53;;
9940;SDS011;5009;50.656;7.188;2024-01-25T18:49:37;15.10;;;7.57;;
9940;SDS011;5009;50.656;7.188;2024-01-25T18:52:03;13.07;;;6.00;;
9940;SDS011;5009;50.656;7.188;2024-01-25T18:54:30;16.70;;;6.60;;
9940;SDS011;5009;50.656;7.188;2024-01-25T18:56:56;12.07;;;5.60;;
9940;SDS011;5009;50.656;7.188;2024-01-25T18:59:22;12.77;;;6.17;;
9940;SDS011;5009;50.656;7.188;2024-01-25T19:01:50;19.27;;;9.03;;
9940;SDS011;5009;50.656;7.188;2024-01-25T19:04:20;15.80;;;6.77;;
9940;SDS011;5009;50.656;7.188;2024-01-25T19:06:49;14.63;;;5.80;;
9940;SDS011;5009;50.656;7.188;2024-01-25T19:09:18;15.87;;;5.97;;
9940;SDS011;5009;50.656;7.188;2024-01-25T19:11:45;14.83;;;5.63;;
9940;SDS011;5009;50.656;7.188;2024-01-25T19:14:10;17.67;;;6.00;;
9940;SDS011;5009;50.656;7.188;2024-01-25T19:16:36;17.53;;;6.93;;
9940;SDS011;5009;50.656;7.188;2024-01-25T19:19:01;15.07;;;6.47;;
9940;SDS011;5009;50.656;7.188;2024-01-25T19:21:28;17.80;;;7.10;;
9940;SDS011;5009;50.656;7.188;2024-01-25T19:23:55;16.20;;;6.97;;
9940;SDS011;5009;50.656;7.188;2024-01-25T19:26:22;15.90;;;7.63;;
9940;SDS011;5009;50.656;7.188;2024-01-25T19:28:50;14.07;;;6.73;;
9940;SDS011;5009;50.656;7.188;2024-01-25T19:31:16;16.07;;;7.53;;
9940;SDS011;5009;50.656;7.188;2024-01-25T19:33:44;16.03;;;8.20;;
9940;SDS011;5009;50.656;7.188;2024-01-25T19:36:12;17.70;;;7.50;;
9940;SDS011;5009;50.656;7.188;2024-01-25T19:38:40;16.73;;;7.03;;
9940;SDS011;5009;50.656;7.188;2024-01-25T19:41:08;15.13;;;6.97;;
9940;SDS011;5009;50.656;7.188;2024-01-25T19:43:37;14.53;;;6.77;;
9940;SDS011;5009;50.656;7.188;2024-01-25T19:46:05;16.53;;;7.60;;
9940;SDS011;5009;50.656;7.188;2024-01-25T19:48:31;18.47;;;7.03;;
9940;SDS011;5009;50.656;7.188;2024-01-25T19:50:59;13.10;;;6.97;;
9940;SDS011;5009;50.656;7.188;2024-01-25T19:53:27;18.27;;;7.90;;